Airfield :
LOGIN :

Register | Disclaimer

   EN    FR    IT 

 










Legend :    VFR   Marginal VFR   IFR   Intensive IFR   Very Intensive IFR
Visi :
Ceiling :
>= 8 km
>= 3000ft
5 to 8 km
1000 to 3000 ft
1500m to 5 km
500 to 1000 ft
800 to 1500m
200 to 500 ft
< 800m
< 200 ft
Symbols :   Thunderstorms  Fog  Heavy snow  Heavy precipitations  Wind > 20 kt
SIGMETs :     Misc.  Thunderstorms  Icing  Turbulence  Mountain Waves  Volcanic Ashes







- Airport Elevation : 219 ft
- IATA code : TAY


EETU - Ulenurme

CURRENT METAR :
  • 190850Z 21010KT 5000 BR OVC007 03/02 Q1006

EXPIRED METARs :
  • 190750Z 22012KT 5000 BR OVC007 03/02 Q1007
  • 190650Z 22012KT 5000 BR OVC007 03/02 Q1007

TAF TAF EETU
Valid from the 19 at 07:00 until the 19 at 13:00 UTC


190600Z 1907/1913 22012KT 4000 BR OVC005
TEMPO 1907/1913 0500 DZ FG VV002
No reported NOTAMs for that airfield.



MET'MAP, your aeronautical weather chart ! - Copyright ORBIFLY December 2007 - Disclaimer

ORBIFLY MET'MAP TEAM :

Programming & Development : Alexandra Zaïnal
Concept & Development : Baudouin d'Aumeries
Co-Development & Prog : Marc-Olivier Méhu
Technical & hardware support : Manuel Goepfert

Contact : metmap@orbifly.com




SOURCES & CREDITS :

   NOAA